バンコク/スワンナプーム の空港の天気 - METARとTAF

スワンナプーム国際空港 ( VTBS / BKK ) - タイ サムットプラーカーン県 (バンコク近郊)
飛行場実況気象(Metar)
観測時間03/29 04:00 +07 (03/28 21:00 UTC)
風向・風速西南西 2m/s
視程10km以上
天気現象
少しの雲 雲底高度 760m
気温27℃
湿度79%
気圧1011hPa
METARVTBS 282100Z 24003KT 9999 FEW025 27/23 Q1011 NOSIG
過去の天気等 Google飛行場航空写真 Wunderground天気予報

過去48時間のMETAR

飛行場予報(TAF)
発表時間: 3/29 00:00 +07 (3/28 17:00 UTC)
予報対象時間: 29日1時 +07 ~ 30日7時 +07
風向・風速南西 3m/s
視程10km以上
少しの雲 雲底高度 1,220m
29日5時 +07 ~ 29日7時 +07 に徐々に
風向・風速東北東 3m/s
視程8,000m
29日8時 +07 ~ 29日10時 +07 に徐々に
風向・風速南南東 4m/s
視程10km以上
少しの雲 雲底高度 610m
29日14時 +07 ~ 29日18時 +07 に一時的に
風向・風速南南西 6m/s 瞬間風速 13m/s
視程6,000m
天気現象弱い雷雨
少しの積乱雲 雲底高度 550m
全天の4割程度の雲 雲底高度 910m
29日18時 +07 ~ 29日20時 +07 に徐々に
風向・風速南西 3m/s
TAF VTBS 281700Z 2818/2924 23005KT 9999 FEW040
BECMG 2822/2824 06005KT 8000
BECMG 2901/2903 16008KT 9999 FEW020
TEMPO 2907/2911 20012G25KT 6000 -TSRA FEW018CB SCT030
BECMG 2911/2913 22005KT